createdAt,value
2023-04-02T00:02:32.664Z,0.60
2023-04-02T00:05:58.981Z,0.63
2023-04-02T00:09:35.809Z,0.60
2023-04-02T00:13:06.937Z,0.60
2023-04-02T00:16:31.393Z,0.60
2023-04-02T00:19:59.821Z,0.60
2023-04-02T00:23:25.632Z,0.60
2023-04-02T00:26:51.403Z,0.60
2023-04-02T00:30:15.912Z,0.53
2023-04-02T00:33:43.999Z,0.57
2023-04-02T00:37:07.853Z,0.67
2023-04-02T00:40:33.787Z,0.60
2023-04-02T00:44:00.935Z,0.60
2023-04-02T00:47:27.614Z,0.70
2023-04-02T00:50:54.108Z,0.70
2023-04-02T00:54:25.641Z,0.57
2023-04-02T00:57:52.714Z,0.60
2023-04-02T01:01:19.528Z,0.60
2023-04-02T01:04:53.965Z,0.70
2023-04-02T01:08:32.307Z,0.70
2023-04-02T01:12:24.799Z,0.60
2023-04-02T01:16:00.636Z,0.60
2023-04-02T01:20:10.570Z,0.60
2023-04-02T01:23:44.579Z,0.60
2023-04-02T01:27:18.923Z,0.70
2023-04-02T01:30:49.772Z,0.60
2023-04-02T01:34:19.470Z,0.60
2023-04-02T01:37:51.096Z,0.60
2023-04-02T01:41:26.976Z,0.70
2023-04-02T01:44:52.678Z,0.60
2023-04-02T01:48:22.172Z,0.60
2023-04-02T01:51:53.714Z,0.60
2023-04-02T01:55:30.281Z,0.60
2023-04-02T01:58:54.277Z,0.70
2023-04-02T02:02:19.740Z,0.60
2023-04-02T02:05:46.401Z,0.60
2023-04-02T02:09:23.062Z,0.60
2023-04-02T02:12:48.653Z,0.60
2023-04-02T02:16:18.937Z,0.60
2023-04-02T02:19:47.908Z,0.60
2023-04-02T02:23:14.385Z,0.70
2023-04-02T02:26:40.641Z,0.60
2023-04-02T02:30:13.291Z,0.50
2023-04-02T02:33:45.464Z,0.60
2023-04-02T02:37:18.713Z,0.50
2023-04-02T02:40:49.458Z,0.60
2023-04-02T02:44:21.711Z,0.60
2023-04-02T02:47:48.352Z,0.70
2023-04-02T02:51:24.230Z,0.60
2023-04-02T02:54:54.166Z,0.60
2023-04-02T02:58:27.466Z,0.60
2023-04-02T03:02:09.661Z,0.60
2023-04-02T03:05:34.027Z,0.67
2023-04-02T03:09:17.420Z,0.60
2023-04-02T03:12:50.164Z,0.60
2023-04-02T03:16:22.388Z,0.67
2023-04-02T03:19:54.267Z,0.70
2023-04-02T03:23:25.613Z,0.60
2023-04-02T03:26:58.496Z,0.70
2023-04-02T03:30:38.630Z,0.70
2023-04-02T03:34:14.864Z,0.60
2023-04-02T03:37:47.174Z,0.60
2023-04-02T03:41:19.582Z,0.73
2023-04-02T03:44:53.150Z,0.70
2023-04-02T03:48:25.761Z,0.60
2023-04-02T03:51:58.552Z,0.60
2023-04-02T03:55:28.853Z,0.60
2023-04-02T03:59:06.738Z,0.70
2023-04-02T04:02:46.351Z,0.60
2023-04-02T04:06:19.136Z,0.70
2023-04-02T04:09:51.075Z,0.60
2023-04-02T04:13:23.506Z,0.60
2023-04-02T04:16:54.529Z,0.60
2023-04-02T04:20:28.035Z,0.60
2023-04-02T04:23:52.782Z,0.60
2023-04-02T04:27:33.631Z,0.60
2023-04-02T04:31:06.816Z,0.60
2023-04-02T04:34:46.785Z,0.60
2023-04-02T04:38:21.801Z,0.60
2023-04-02T04:41:50.034Z,0.60
2023-04-02T04:45:41.291Z,0.70
2023-04-02T04:49:12.442Z,0.60
2023-04-02T04:52:39.865Z,0.80
2023-04-02T04:56:18.652Z,0.70
2023-04-02T04:59:54.255Z,0.80
2023-04-02T05:03:33.723Z,0.60
2023-04-02T05:07:07.273Z,0.70
2023-04-02T05:10:42.113Z,0.70
2023-04-02T05:14:17.547Z,0.80
2023-04-02T05:17:51.378Z,0.60
2023-04-02T05:21:25.947Z,0.70
2023-04-02T05:25:02.282Z,0.60
2023-04-02T05:28:39.701Z,0.60
2023-04-02T05:32:12.142Z,0.67
2023-04-02T05:35:43.157Z,0.60
2023-04-02T05:39:12.570Z,0.60
2023-04-02T05:42:46.693Z,0.60
2023-04-02T05:46:19.013Z,0.70
2023-04-02T05:49:50.470Z,0.60
2023-04-02T05:53:22.483Z,0.60
2023-04-02T05:56:56.137Z,0.70
2023-04-02T06:00:26.318Z,0.60
2023-04-02T06:04:01.726Z,0.67
2023-04-02T06:07:34.162Z,0.60
2023-04-02T06:11:05.587Z,0.80
2023-04-02T06:14:31.292Z,0.60
2023-04-02T06:18:01.384Z,0.70
2023-04-02T06:21:26.777Z,0.83
2023-04-02T06:25:01.111Z,0.60
2023-04-02T06:28:34.125Z,0.70
2023-04-02T06:32:02.949Z,0.70
2023-04-02T06:35:27.674Z,0.60
2023-04-02T06:39:04.584Z,0.60
2023-04-02T06:42:36.760Z,0.70
2023-04-02T06:46:26.426Z,0.70
2023-04-02T06:50:13.744Z,0.60
2023-04-02T06:53:41.473Z,0.60
2023-04-02T06:57:13.280Z,0.60
2023-04-02T07:00:43.384Z,0.70
2023-04-02T07:04:12.276Z,0.83
2023-04-02T07:07:42.613Z,0.60
2023-04-02T07:11:08.000Z,0.63
2023-04-02T07:14:31.600Z,0.60
2023-04-02T07:17:57.204Z,0.70
2023-04-02T07:21:21.707Z,0.67
2023-04-02T07:24:47.595Z,0.70
2023-04-02T07:28:11.178Z,0.60
2023-04-02T07:31:34.835Z,0.67
2023-04-02T07:34:58.711Z,0.60
2023-04-02T07:38:22.730Z,0.60
2023-04-02T07:41:55.642Z,0.60
2023-04-02T07:45:19.566Z,0.70
2023-04-02T07:48:43.424Z,0.70
2023-04-02T07:52:07.564Z,0.60
2023-04-02T07:55:31.476Z,0.70
2023-04-02T07:58:56.648Z,0.70
2023-04-02T08:02:21.964Z,0.60
2023-04-02T08:05:51.605Z,1.00
2023-04-02T08:09:15.590Z,0.90
2023-04-02T08:12:39.684Z,0.80
2023-04-02T08:16:06.214Z,0.70
2023-04-02T08:19:30.089Z,0.70
2023-04-02T08:22:53.940Z,0.70
2023-04-02T08:26:19.431Z,0.60
2023-04-02T08:29:42.888Z,0.70
2023-04-02T08:33:07.823Z,0.60
2023-04-02T08:36:37.433Z,0.80
2023-04-02T08:40:01.222Z,0.60
2023-04-02T08:43:42.499Z,0.70
2023-04-02T08:47:08.989Z,0.67
2023-04-02T08:50:37.372Z,0.80
2023-04-02T08:54:08.743Z,0.60
2023-04-02T08:57:48.073Z,0.70
2023-04-02T09:01:28.315Z,0.70
2023-04-02T09:04:52.951Z,0.70
2023-04-02T09:08:21.710Z,0.60
2023-04-02T09:11:53.402Z,0.70
2023-04-02T09:15:29.403Z,0.70
2023-04-02T09:18:55.778Z,0.70
2023-04-02T09:22:24.238Z,0.80
2023-04-02T09:26:03.599Z,0.87
2023-04-02T09:29:44.416Z,0.70
2023-04-02T09:33:09.081Z,0.70
2023-04-02T09:36:38.264Z,0.70
2023-04-02T09:40:27.361Z,0.70
2023-04-02T09:44:15.168Z,1.00
2023-04-02T09:47:42.456Z,0.93
2023-04-02T09:51:16.330Z,0.70
2023-04-02T09:54:42.702Z,1.20
2023-04-02T09:58:13.972Z,1.00
2023-04-02T10:01:41.970Z,0.80
2023-04-02T10:05:07.155Z,0.90
2023-04-02T10:08:31.753Z,0.60
2023-04-02T10:11:57.596Z,0.70
2023-04-02T10:15:28.642Z,0.63
2023-04-02T10:18:59.609Z,0.70
2023-04-02T10:22:24.794Z,0.60
2023-04-02T10:25:58.604Z,0.70
2023-04-02T10:29:58.265Z,0.73
2023-04-02T10:33:33.494Z,0.80
2023-04-02T10:37:08.913Z,0.70
2023-04-02T10:40:37.943Z,0.70
2023-04-02T10:44:20.420Z,0.73
2023-04-02T10:47:55.752Z,0.60
2023-04-02T10:51:34.188Z,0.80
2023-04-02T10:55:05.228Z,0.80
2023-04-02T10:58:34.753Z,0.70
2023-04-02T11:02:04.912Z,0.80
2023-04-02T11:05:37.347Z,0.73
2023-04-02T11:09:05.923Z,0.70
2023-04-02T11:12:44.557Z,0.60
2023-04-02T11:16:08.929Z,0.70
2023-04-02T11:19:33.785Z,0.70
2023-04-02T11:23:11.362Z,0.80
2023-04-02T11:26:43.177Z,0.70
2023-04-02T11:30:23.638Z,0.60
2023-04-02T11:33:49.988Z,0.60
2023-04-02T11:37:35.011Z,0.60
2023-04-02T11:40:59.800Z,0.60
2023-04-02T11:44:25.332Z,0.70
2023-04-02T11:48:31.195Z,0.60
2023-04-02T11:52:08.997Z,0.60
2023-04-02T11:55:36.421Z,0.70
2023-04-02T11:59:16.072Z,0.60
2023-04-02T12:02:59.469Z,0.63
2023-04-02T12:06:39.937Z,0.60
2023-04-02T12:10:06.820Z,0.60
2023-04-02T12:13:55.127Z,0.60
2023-04-02T12:17:29.888Z,0.70
2023-04-02T12:20:56.749Z,0.60
2023-04-02T12:24:25.599Z,0.60
2023-04-02T12:27:49.964Z,0.60
2023-04-02T12:31:17.920Z,0.70
2023-04-02T12:34:47.273Z,0.60
2023-04-02T12:38:22.229Z,0.60
2023-04-02T12:41:47.450Z,0.80
2023-04-02T12:45:28.725Z,0.60
2023-04-02T12:48:54.062Z,0.80
2023-04-02T12:52:19.895Z,0.60
2023-04-02T12:55:51.208Z,0.60
2023-04-02T12:59:39.037Z,0.60
2023-04-02T13:03:18.996Z,0.60
2023-04-02T13:06:54.909Z,0.60
2023-04-02T13:10:27.642Z,0.63
2023-04-02T13:13:51.816Z,0.57
2023-04-02T13:17:44.018Z,0.60
2023-04-02T13:21:25.437Z,0.77
2023-04-02T13:24:50.133Z,0.70
2023-04-02T13:28:13.780Z,0.70
2023-04-02T13:31:37.925Z,0.70
2023-04-02T13:35:03.263Z,0.70
2023-04-02T13:38:26.792Z,0.80
2023-04-02T13:41:54.560Z,0.70
2023-04-02T13:45:27.291Z,0.80
2023-04-02T13:48:53.035Z,0.90
2023-04-02T13:52:18.599Z,0.80
2023-04-02T13:55:44.021Z,0.70
2023-04-02T13:59:07.596Z,0.70
2023-04-02T14:02:34.295Z,0.80
2023-04-02T14:06:08.383Z,0.80
2023-04-02T14:09:53.655Z,0.80
2023-04-02T14:13:39.516Z,0.80
2023-04-02T14:17:22.882Z,0.70
2023-04-02T14:20:56.189Z,0.90
2023-04-02T14:24:28.014Z,0.73
2023-04-02T14:28:04.021Z,0.70
2023-04-02T14:31:37.103Z,0.90
2023-04-02T14:35:07.256Z,0.70
2023-04-02T14:38:40.448Z,0.80
2023-04-02T14:42:14.064Z,0.73
2023-04-02T14:45:56.412Z,0.90
2023-04-02T14:49:27.950Z,0.80
2023-04-02T14:52:58.075Z,0.70
2023-04-02T14:56:24.834Z,0.80
2023-04-02T15:00:01.737Z,0.60
2023-04-02T15:03:34.071Z,0.80
2023-04-02T15:07:06.501Z,0.80
2023-04-02T15:10:34.876Z,0.80
2023-04-02T15:14:04.798Z,0.70
2023-04-02T15:17:28.371Z,0.70
2023-04-02T15:21:09.062Z,0.70
2023-04-02T15:24:43.181Z,0.60
2023-04-02T15:28:20.740Z,0.90
2023-04-02T15:31:47.191Z,0.77
2023-04-02T15:35:28.761Z,0.70
2023-04-02T15:39:01.432Z,0.60
2023-04-02T15:42:30.186Z,0.70
2023-04-02T15:46:10.527Z,0.80
2023-04-02T15:49:43.923Z,0.73
2023-04-02T15:53:28.331Z,0.70
2023-04-02T15:57:05.220Z,0.70
2023-04-02T16:00:31.617Z,0.80
2023-04-02T16:04:28.066Z,0.80
2023-04-02T16:08:22.621Z,0.60
2023-04-02T16:11:46.614Z,0.70
2023-04-02T16:15:18.853Z,0.70
2023-04-02T16:18:51.884Z,0.90
2023-04-02T16:22:21.333Z,1.10
2023-04-02T16:25:56.399Z,0.93
2023-04-02T16:29:51.206Z,0.80
2023-04-02T16:33:32.958Z,0.80
2023-04-02T16:37:01.217Z,0.87
2023-04-02T16:40:38.403Z,0.83
2023-04-02T16:44:11.105Z,0.70
2023-04-02T16:47:51.560Z,0.73
2023-04-02T16:51:22.136Z,1.03
2023-04-02T16:54:52.352Z,0.73
2023-04-02T16:58:35.150Z,0.80
2023-04-02T17:02:04.798Z,0.80
2023-04-02T17:05:33.017Z,1.00
2023-04-02T17:09:09.482Z,0.93
2023-04-02T17:12:44.473Z,0.80
2023-04-02T17:16:18.329Z,0.97
2023-04-02T17:19:44.352Z,0.77
2023-04-02T17:23:12.935Z,0.90
2023-04-02T17:26:39.384Z,0.90
2023-04-02T17:30:14.040Z,1.03
2023-04-02T17:33:38.065Z,0.80
2023-04-02T17:37:13.203Z,0.77
2023-04-02T17:40:44.085Z,1.00
2023-04-02T17:44:29.319Z,1.00
2023-04-02T17:48:02.726Z,1.13
2023-04-02T17:51:35.354Z,1.10
2023-04-02T17:55:08.092Z,1.00
2023-04-02T17:58:53.563Z,1.13
2023-04-02T18:02:39.323Z,0.87
2023-04-02T18:06:11.452Z,1.30
2023-04-02T18:09:46.061Z,1.10
2023-04-02T18:13:21.190Z,1.27
2023-04-02T18:16:53.924Z,1.30
2023-04-02T18:20:29.776Z,1.40
2023-04-02T18:24:12.962Z,1.20
2023-04-02T18:27:46.121Z,1.10
2023-04-02T18:31:20.025Z,1.23
2023-04-02T18:35:04.611Z,1.10
2023-04-02T18:38:41.933Z,1.10
2023-04-02T18:42:15.354Z,1.33
2023-04-02T18:45:56.215Z,1.20
2023-04-02T18:49:29.920Z,1.30
2023-04-02T18:52:53.910Z,1.40
2023-04-02T18:56:22.284Z,1.50
2023-04-02T18:59:55.507Z,1.60
2023-04-02T19:03:27.909Z,1.60
2023-04-02T19:06:58.018Z,1.40
2023-04-02T19:10:32.883Z,1.53
2023-04-02T19:14:01.239Z,1.73
2023-04-02T19:17:36.468Z,1.47
2023-04-02T19:21:12.277Z,1.30
2023-04-02T19:24:57.108Z,1.33
2023-04-02T19:28:27.061Z,1.30
2023-04-02T19:32:00.260Z,1.40
2023-04-02T19:35:30.540Z,1.10
2023-04-02T19:39:18.702Z,1.27
2023-04-02T19:42:47.903Z,1.27
2023-04-02T19:46:11.949Z,1.20
2023-04-02T19:49:37.198Z,1.13
2023-04-02T19:53:01.062Z,1.03
2023-04-02T19:56:24.961Z,1.47
2023-04-02T19:59:48.826Z,1.50
2023-04-02T20:03:12.689Z,1.70
2023-04-02T20:06:37.712Z,1.33
2023-04-02T20:10:01.590Z,1.10
2023-04-02T20:13:25.496Z,1.50
2023-04-02T20:16:49.449Z,1.27
2023-04-02T20:20:16.015Z,1.17
2023-04-02T20:23:41.218Z,1.20
2023-04-02T20:27:04.931Z,1.30
2023-04-02T20:30:28.798Z,1.03
2023-04-02T20:33:56.602Z,1.20
2023-04-02T20:37:20.630Z,1.40
2023-04-02T20:40:52.643Z,1.13
2023-04-02T20:44:16.754Z,1.50
2023-04-02T20:47:40.580Z,1.30
2023-04-02T20:51:07.463Z,1.40
2023-04-02T20:54:31.422Z,1.13
2023-04-02T20:57:56.388Z,1.30
2023-04-02T21:01:22.914Z,1.37
2023-04-02T21:04:46.866Z,1.10
2023-04-02T21:08:10.357Z,1.30
2023-04-02T21:11:34.300Z,1.40
2023-04-02T21:15:01.800Z,1.27
2023-04-02T21:18:27.034Z,1.40
2023-04-02T21:21:50.532Z,1.30
2023-04-02T21:25:14.307Z,1.63
2023-04-02T21:28:37.816Z,1.53
2023-04-02T21:32:11.074Z,1.20
2023-04-02T21:35:42.175Z,1.30
2023-04-02T21:39:09.521Z,1.63
2023-04-02T21:42:33.308Z,1.40
2023-04-02T21:46:00.216Z,1.30
2023-04-02T21:49:26.209Z,1.03
2023-04-02T21:52:49.936Z,1.30
2023-04-02T21:56:16.931Z,1.20
2023-04-02T21:59:40.937Z,1.30
2023-04-02T22:03:04.851Z,1.10
2023-04-02T22:06:31.989Z,1.20
2023-04-02T22:09:56.006Z,1.20
2023-04-02T22:13:19.857Z,1.30
2023-04-02T22:16:43.859Z,1.23
2023-04-02T22:20:09.080Z,1.40
2023-04-02T22:23:35.548Z,1.20
2023-04-02T22:26:59.423Z,1.13
2023-04-02T22:30:23.053Z,1.50
2023-04-02T22:33:48.086Z,1.17
2023-04-02T22:37:11.970Z,1.40
2023-04-02T22:40:37.591Z,1.20
2023-04-02T22:44:03.201Z,1.20
2023-04-02T22:47:27.154Z,1.00
2023-04-02T22:50:51.486Z,1.13
2023-04-02T22:54:15.314Z,1.03
2023-04-02T22:57:40.653Z,1.30
2023-04-02T23:01:06.470Z,1.20
2023-04-02T23:04:30.324Z,1.10
2023-04-02T23:07:54.352Z,1.00
2023-04-02T23:11:22.307Z,0.90
2023-04-02T23:14:47.184Z,1.20
2023-04-02T23:18:11.058Z,1.20
2023-04-02T23:21:34.850Z,1.10
2023-04-02T23:24:58.525Z,1.10
2023-04-02T23:28:22.003Z,1.10
2023-04-02T23:31:48.137Z,1.30
2023-04-02T23:35:12.027Z,1.20
2023-04-02T23:38:35.970Z,1.30
2023-04-02T23:42:00.622Z,1.10
2023-04-02T23:45:24.064Z,1.30
2023-04-02T23:48:50.447Z,1.20
2023-04-02T23:52:14.660Z,1.10
2023-04-02T23:55:38.566Z,1.33
2023-04-02T23:59:02.393Z,1.30
